sensor_id;sensor_type;location;lat;lon;timestamp;temperature;humidity
17128;DHT22;8679;50.842;4.322;2023-04-24T00:00:41;9.60;99.90
17128;DHT22;8679;50.842;4.322;2023-04-24T00:03:07;9.60;99.90
17128;DHT22;8679;50.842;4.322;2023-04-24T00:05:33;9.50;99.90
17128;DHT22;8679;50.842;4.322;2023-04-24T00:07:59;9.50;99.90
17128;DHT22;8679;50.842;4.322;2023-04-24T00:10:25;9.50;99.90
17128;DHT22;8679;50.842;4.322;2023-04-24T00:12:51;9.40;99.90
17128;DHT22;8679;50.842;4.322;2023-04-24T00:15:16;9.40;99.90
17128;DHT22;8679;50.842;4.322;2023-04-24T00:17:42;9.40;99.90
17128;DHT22;8679;50.842;4.322;2023-04-24T00:20:08;9.30;99.90
17128;DHT22;8679;50.842;4.322;2023-04-24T00:22:35;9.30;99.90
17128;DHT22;8679;50.842;4.322;2023-04-24T00:25:01;9.30;99.90
17128;DHT22;8679;50.842;4.322;2023-04-24T00:27:26;9.30;99.90
17128;DHT22;8679;50.842;4.322;2023-04-24T00:29:52;9.20;99.90
17128;DHT22;8679;50.842;4.322;2023-04-24T00:32:18;9.20;99.90
17128;DHT22;8679;50.842;4.322;2023-04-24T00:34:44;9.20;99.90
17128;DHT22;8679;50.842;4.322;2023-04-24T00:37:09;9.20;99.90
17128;DHT22;8679;50.842;4.322;2023-04-24T00:39:35;9.20;99.90
17128;DHT22;8679;50.842;4.322;2023-04-24T00:42:01;9.30;99.90
17128;DHT22;8679;50.842;4.322;2023-04-24T00:44:27;9.30;99.90
17128;DHT22;8679;50.842;4.322;2023-04-24T00:46:54;9.30;99.90
17128;DHT22;8679;50.842;4.322;2023-04-24T00:49:21;9.30;99.90
17128;DHT22;8679;50.842;4.322;2023-04-24T00:51:47;9.30;99.90
17128;DHT22;8679;50.842;4.322;2023-04-24T00:54:13;9.30;99.90
17128;DHT22;8679;50.842;4.322;2023-04-24T00:56:40;9.30;99.90
17128;DHT22;8679;50.842;4.322;2023-04-24T00:59:06;9.30;99.90
17128;DHT22;8679;50.842;4.322;2023-04-24T01:01:32;9.30;99.90
17128;DHT22;8679;50.842;4.322;2023-04-24T01:03:58;9.30;99.90
17128;DHT22;8679;50.842;4.322;2023-04-24T01:06:27;9.30;99.90
17128;DHT22;8679;50.842;4.322;2023-04-24T01:08:53;9.30;99.90
17128;DHT22;8679;50.842;4.322;2023-04-24T01:11:19;9.30;99.90
17128;DHT22;8679;50.842;4.322;2023-04-24T01:13:46;9.30;99.90
17128;DHT22;8679;50.842;4.322;2023-04-24T01:16:12;9.20;99.90
17128;DHT22;8679;50.842;4.322;2023-04-24T01:18:38;9.20;99.90
17128;DHT22;8679;50.842;4.322;2023-04-24T01:21:05;9.20;99.90
17128;DHT22;8679;50.842;4.322;2023-04-24T01:23:32;9.20;99.90
17128;DHT22;8679;50.842;4.322;2023-04-24T01:25:57;9.10;99.90
17128;DHT22;8679;50.842;4.322;2023-04-24T01:28:23;9.10;99.90
17128;DHT22;8679;50.842;4.322;2023-04-24T01:30:49;9.10;99.90
17128;DHT22;8679;50.842;4.322;2023-04-24T01:33:15;9.10;99.90
17128;DHT22;8679;50.842;4.322;2023-04-24T01:35:42;9.10;99.90
17128;DHT22;8679;50.842;4.322;2023-04-24T01:38:08;9.10;99.90
17128;DHT22;8679;50.842;4.322;2023-04-24T01:40:33;9.10;99.90
17128;DHT22;8679;50.842;4.322;2023-04-24T01:43:00;9.10;99.90
17128;DHT22;8679;50.842;4.322;2023-04-24T01:45:25;9.10;99.90
17128;DHT22;8679;50.842;4.322;2023-04-24T01:47:51;9.10;99.90
17128;DHT22;8679;50.842;4.322;2023-04-24T01:50:18;9.10;99.90
17128;DHT22;8679;50.842;4.322;2023-04-24T01:52:43;9.10;99.90
17128;DHT22;8679;50.842;4.322;2023-04-24T01:55:10;9.10;99.90
17128;DHT22;8679;50.842;4.322;2023-04-24T01:57:35;9.10;99.90
17128;DHT22;8679;50.842;4.322;2023-04-24T02:00:02;9.10;99.90
17128;DHT22;8679;50.842;4.322;2023-04-24T02:02:30;9.10;99.90
17128;DHT22;8679;50.842;4.322;2023-04-24T02:04:56;9.10;99.90
17128;DHT22;8679;50.842;4.322;2023-04-24T02:07:22;9.10;99.90
17128;DHT22;8679;50.842;4.322;2023-04-24T02:09:48;9.10;99.90
17128;DHT22;8679;50.842;4.322;2023-04-24T02:12:14;9.10;99.90
17128;DHT22;8679;50.842;4.322;2023-04-24T02:14:40;9.10;99.90
17128;DHT22;8679;50.842;4.322;2023-04-24T02:17:07;9.10;99.90
17128;DHT22;8679;50.842;4.322;2023-04-24T02:19:33;9.10;99.90
17128;DHT22;8679;50.842;4.322;2023-04-24T02:21:59;9.10;99.90
17128;DHT22;8679;50.842;4.322;2023-04-24T02:24:24;9.00;99.90
17128;DHT22;8679;50.842;4.322;2023-04-24T02:26:50;9.10;99.90
17128;DHT22;8679;50.842;4.322;2023-04-24T02:29:16;9.10;99.90
17128;DHT22;8679;50.842;4.322;2023-04-24T02:31:41;9.10;99.90
17128;DHT22;8679;50.842;4.322;2023-04-24T02:34:07;9.10;99.90
17128;DHT22;8679;50.842;4.322;2023-04-24T02:36:32;9.10;99.90
17128;DHT22;8679;50.842;4.322;2023-04-24T02:38:58;9.00;99.90
17128;DHT22;8679;50.842;4.322;2023-04-24T02:41:24;9.00;99.90
17128;DHT22;8679;50.842;4.322;2023-04-24T02:43:49;9.00;99.90
17128;DHT22;8679;50.842;4.322;2023-04-24T02:46:15;9.00;99.90
17128;DHT22;8679;50.842;4.322;2023-04-24T02:48:41;9.00;99.90
17128;DHT22;8679;50.842;4.322;2023-04-24T02:51:06;8.90;99.90
17128;DHT22;8679;50.842;4.322;2023-04-24T02:53:32;9.00;99.90
17128;DHT22;8679;50.842;4.322;2023-04-24T02:55:58;8.90;99.90
17128;DHT22;8679;50.842;4.322;2023-04-24T02:58:24;8.90;99.90
17128;DHT22;8679;50.842;4.322;2023-04-24T03:00:53;8.90;99.90
17128;DHT22;8679;50.842;4.322;2023-04-24T03:03:19;8.90;99.90
17128;DHT22;8679;50.842;4.322;2023-04-24T03:05:45;8.90;99.90
17128;DHT22;8679;50.842;4.322;2023-04-24T03:08:11;8.90;99.90
17128;DHT22;8679;50.842;4.322;2023-04-24T03:10:37;8.90;99.90
17128;DHT22;8679;50.842;4.322;2023-04-24T03:13:02;8.90;99.90
17128;DHT22;8679;50.842;4.322;2023-04-24T03:15:28;8.90;99.90
17128;DHT22;8679;50.842;4.322;2023-04-24T03:17:53;8.90;99.90
17128;DHT22;8679;50.842;4.322;2023-04-24T03:20:19;8.90;99.90
17128;DHT22;8679;50.842;4.322;2023-04-24T03:22:45;8.90;99.90
17128;DHT22;8679;50.842;4.322;2023-04-24T03:25:10;8.90;99.90
17128;DHT22;8679;50.842;4.322;2023-04-24T03:27:36;8.90;99.90
17128;DHT22;8679;50.842;4.322;2023-04-24T03:30:03;8.90;99.90
17128;DHT22;8679;50.842;4.322;2023-04-24T03:32:29;8.90;99.90
17128;DHT22;8679;50.842;4.322;2023-04-24T03:34:55;8.90;99.90
17128;DHT22;8679;50.842;4.322;2023-04-24T03:37:21;8.90;99.90
17128;DHT22;8679;50.842;4.322;2023-04-24T03:39:46;8.90;99.90
17128;DHT22;8679;50.842;4.322;2023-04-24T03:42:12;8.90;99.90
17128;DHT22;8679;50.842;4.322;2023-04-24T03:44:37;8.80;99.90
17128;DHT22;8679;50.842;4.322;2023-04-24T03:47:03;8.90;99.90
17128;DHT22;8679;50.842;4.322;2023-04-24T03:49:29;8.90;99.90
17128;DHT22;8679;50.842;4.322;2023-04-24T03:51:54;8.90;99.90
17128;DHT22;8679;50.842;4.322;2023-04-24T03:54:20;8.90;99.90
17128;DHT22;8679;50.842;4.322;2023-04-24T03:56:46;8.90;99.90
17128;DHT22;8679;50.842;4.322;2023-04-24T03:59:11;8.90;99.90
17128;DHT22;8679;50.842;4.322;2023-04-24T04:01:38;9.00;99.90
17128;DHT22;8679;50.842;4.322;2023-04-24T04:04:07;9.00;99.90
17128;DHT22;8679;50.842;4.322;2023-04-24T04:06:33;9.00;99.90
17128;DHT22;8679;50.842;4.322;2023-04-24T04:09:00;9.00;99.90
17128;DHT22;8679;50.842;4.322;2023-04-24T04:11:26;9.00;99.90
17128;DHT22;8679;50.842;4.322;2023-04-24T04:13:52;9.00;99.90
17128;DHT22;8679;50.842;4.322;2023-04-24T04:16:17;9.10;99.90
17128;DHT22;8679;50.842;4.322;2023-04-24T04:18:43;9.00;99.90
17128;DHT22;8679;50.842;4.322;2023-04-24T04:21:09;9.00;99.90
17128;DHT22;8679;50.842;4.322;2023-04-24T04:23:35;9.00;99.90
17128;DHT22;8679;50.842;4.322;2023-04-24T04:26:01;9.00;99.90
17128;DHT22;8679;50.842;4.322;2023-04-24T04:28:27;9.10;99.90
17128;DHT22;8679;50.842;4.322;2023-04-24T04:30:53;9.10;99.90
17128;DHT22;8679;50.842;4.322;2023-04-24T04:33:23;9.10;99.90
17128;DHT22;8679;50.842;4.322;2023-04-24T04:35:49;9.10;99.90
17128;DHT22;8679;50.842;4.322;2023-04-24T04:38:17;9.00;99.90
17128;DHT22;8679;50.842;4.322;2023-04-24T04:40:43;9.00;99.90
17128;DHT22;8679;50.842;4.322;2023-04-24T04:43:09;9.00;99.90
17128;DHT22;8679;50.842;4.322;2023-04-24T04:45:36;9.00;99.90
17128;DHT22;8679;50.842;4.322;2023-04-24T04:48:02;8.90;99.90
17128;DHT22;8679;50.842;4.322;2023-04-24T04:50:29;8.90;99.90
17128;DHT22;8679;50.842;4.322;2023-04-24T04:52:54;9.00;99.90
17128;DHT22;8679;50.842;4.322;2023-04-24T04:55:20;8.90;99.90
17128;DHT22;8679;50.842;4.322;2023-04-24T04:57:46;8.90;99.90
17128;DHT22;8679;50.842;4.322;2023-04-24T05:00:12;8.80;99.90
17128;DHT22;8679;50.842;4.322;2023-04-24T05:02:41;8.80;99.90
17128;DHT22;8679;50.842;4.322;2023-04-24T05:05:07;8.80;99.90
17128;DHT22;8679;50.842;4.322;2023-04-24T05:07:34;8.80;99.90
17128;DHT22;8679;50.842;4.322;2023-04-24T05:10:00;8.90;99.90
17128;DHT22;8679;50.842;4.322;2023-04-24T05:12:25;8.90;99.90
17128;DHT22;8679;50.842;4.322;2023-04-24T05:14:51;8.80;99.90
17128;DHT22;8679;50.842;4.322;2023-04-24T05:17:17;8.80;99.90
17128;DHT22;8679;50.842;4.322;2023-04-24T05:19:42;8.80;99.90
17128;DHT22;8679;50.842;4.322;2023-04-24T05:22:09;8.80;99.90
17128;DHT22;8679;50.842;4.322;2023-04-24T05:24:35;8.80;99.90
17128;DHT22;8679;50.842;4.322;2023-04-24T05:27:02;8.80;99.90
17128;DHT22;8679;50.842;4.322;2023-04-24T05:29:28;8.80;99.90
17128;DHT22;8679;50.842;4.322;2023-04-24T05:31:56;8.80;99.90
17128;DHT22;8679;50.842;4.322;2023-04-24T05:34:22;8.80;99.90
17128;DHT22;8679;50.842;4.322;2023-04-24T05:36:48;8.80;99.90
17128;DHT22;8679;50.842;4.322;2023-04-24T05:39:14;8.70;99.90
17128;DHT22;8679;50.842;4.322;2023-04-24T05:41:40;8.70;99.90
17128;DHT22;8679;50.842;4.322;2023-04-24T05:44:06;8.70;99.90
17128;DHT22;8679;50.842;4.322;2023-04-24T05:46:31;8.70;99.90
17128;DHT22;8679;50.842;4.322;2023-04-24T05:48:57;8.70;99.90
17128;DHT22;8679;50.842;4.322;2023-04-24T05:51:23;8.80;99.90
17128;DHT22;8679;50.842;4.322;2023-04-24T05:53:49;8.80;99.90
17128;DHT22;8679;50.842;4.322;2023-04-24T05:56:15;8.70;99.90
17128;DHT22;8679;50.842;4.322;2023-04-24T05:58:41;8.70;99.90
17128;DHT22;8679;50.842;4.322;2023-04-24T06:01:06;8.70;99.90
17128;DHT22;8679;50.842;4.322;2023-04-24T06:03:32;8.70;99.90
17128;DHT22;8679;50.842;4.322;2023-04-24T06:05:58;8.70;99.90
17128;DHT22;8679;50.842;4.322;2023-04-24T06:08:24;8.70;99.90
17128;DHT22;8679;50.842;4.322;2023-04-24T06:10:50;8.70;99.90
17128;DHT22;8679;50.842;4.322;2023-04-24T06:13:15;8.60;99.90
17128;DHT22;8679;50.842;4.322;2023-04-24T06:15:41;8.60;99.90
17128;DHT22;8679;50.842;4.322;2023-04-24T06:18:07;8.60;99.90
17128;DHT22;8679;50.842;4.322;2023-04-24T06:20:33;8.60;99.90
17128;DHT22;8679;50.842;4.322;2023-04-24T06:22:58;8.60;99.90
17128;DHT22;8679;50.842;4.322;2023-04-24T06:25:28;8.60;99.90
17128;DHT22;8679;50.842;4.322;2023-04-24T06:27:54;8.60;99.90
17128;DHT22;8679;50.842;4.322;2023-04-24T06:30:20;8.60;99.90
17128;DHT22;8679;50.842;4.322;2023-04-24T06:32:46;8.60;99.90
17128;DHT22;8679;50.842;4.322;2023-04-24T06:35:11;8.60;99.90
17128;DHT22;8679;50.842;4.322;2023-04-24T06:37:39;8.60;99.90
17128;DHT22;8679;50.842;4.322;2023-04-24T06:40:06;8.70;99.90
17128;DHT22;8679;50.842;4.322;2023-04-24T06:42:31;8.70;99.90
17128;DHT22;8679;50.842;4.322;2023-04-24T06:44:57;8.70;99.90
17128;DHT22;8679;50.842;4.322;2023-04-24T06:47:23;8.80;99.90
17128;DHT22;8679;50.842;4.322;2023-04-24T06:49:48;8.80;99.90
17128;DHT22;8679;50.842;4.322;2023-04-24T06:52:16;8.80;99.90
17128;DHT22;8679;50.842;4.322;2023-04-24T06:54:42;8.90;99.90
17128;DHT22;8679;50.842;4.322;2023-04-24T06:57:08;8.90;99.90
17128;DHT22;8679;50.842;4.322;2023-04-24T06:59:34;8.90;99.90
17128;DHT22;8679;50.842;4.322;2023-04-24T07:02:00;9.00;99.90
17128;DHT22;8679;50.842;4.322;2023-04-24T07:04:25;9.00;99.90
17128;DHT22;8679;50.842;4.322;2023-04-24T07:06:52;9.00;99.90
17128;DHT22;8679;50.842;4.322;2023-04-24T07:09:19;9.00;99.90
17128;DHT22;8679;50.842;4.322;2023-04-24T07:11:45;9.10;99.90
17128;DHT22;8679;50.842;4.322;2023-04-24T07:14:11;9.10;99.90
17128;DHT22;8679;50.842;4.322;2023-04-24T07:16:37;9.10;99.90
17128;DHT22;8679;50.842;4.322;2023-04-24T07:19:03;9.20;99.90
17128;DHT22;8679;50.842;4.322;2023-04-24T07:21:28;9.30;99.90
17128;DHT22;8679;50.842;4.322;2023-04-24T07:23:56;9.30;99.90
17128;DHT22;8679;50.842;4.322;2023-04-24T07:26:22;9.30;99.90
17128;DHT22;8679;50.842;4.322;2023-04-24T07:28:47;9.30;99.90
17128;DHT22;8679;50.842;4.322;2023-04-24T07:31:13;9.40;99.90
17128;DHT22;8679;50.842;4.322;2023-04-24T07:33:39;9.50;99.90
17128;DHT22;8679;50.842;4.322;2023-04-24T07:36:04;9.40;99.90
17128;DHT22;8679;50.842;4.322;2023-04-24T07:38:30;9.40;99.90
17128;DHT22;8679;50.842;4.322;2023-04-24T07:40:56;9.40;99.90
17128;DHT22;8679;50.842;4.322;2023-04-24T07:43:22;9.30;99.90
17128;DHT22;8679;50.842;4.322;2023-04-24T07:45:50;9.40;99.90
17128;DHT22;8679;50.842;4.322;2023-04-24T07:48:16;9.30;99.90
17128;DHT22;8679;50.842;4.322;2023-04-24T07:50:43;9.40;99.90
17128;DHT22;8679;50.842;4.322;2023-04-24T07:53:09;9.40;99.90
17128;DHT22;8679;50.842;4.322;2023-04-24T07:55:35;9.60;99.90
17128;DHT22;8679;50.842;4.322;2023-04-24T07:58:01;9.70;99.90
17128;DHT22;8679;50.842;4.322;2023-04-24T08:00:26;9.60;99.90
17128;DHT22;8679;50.842;4.322;2023-04-24T08:02:52;9.70;99.90
17128;DHT22;8679;50.842;4.322;2023-04-24T08:05:18;9.70;99.90
17128;DHT22;8679;50.842;4.322;2023-04-24T08:07:44;9.70;99.90
17128;DHT22;8679;50.842;4.322;2023-04-24T08:10:11;9.70;99.90
17128;DHT22;8679;50.842;4.322;2023-04-24T08:12:38;9.80;99.90
17128;DHT22;8679;50.842;4.322;2023-04-24T08:15:04;9.80;99.90
17128;DHT22;8679;50.842;4.322;2023-04-24T08:17:30;9.90;99.90
17128;DHT22;8679;50.842;4.322;2023-04-24T08:19:56;9.90;99.90
17128;DHT22;8679;50.842;4.322;2023-04-24T08:22:27;10.00;99.90
17128;DHT22;8679;50.842;4.322;2023-04-24T08:24:53;10.10;99.90
17128;DHT22;8679;50.842;4.322;2023-04-24T08:27:19;10.00;99.90
17128;DHT22;8679;50.842;4.322;2023-04-24T08:29:44;10.10;99.90
17128;DHT22;8679;50.842;4.322;2023-04-24T08:32:10;10.10;99.90
17128;DHT22;8679;50.842;4.322;2023-04-24T08:34:35;10.10;99.90
17128;DHT22;8679;50.842;4.322;2023-04-24T08:37:02;10.20;99.90
17128;DHT22;8679;50.842;4.322;2023-04-24T08:39:28;10.10;99.90
17128;DHT22;8679;50.842;4.322;2023-04-24T08:41:54;10.10;99.90
17128;DHT22;8679;50.842;4.322;2023-04-24T08:44:20;10.20;99.90
17128;DHT22;8679;50.842;4.322;2023-04-24T08:46:48;10.30;99.90
17128;DHT22;8679;50.842;4.322;2023-04-24T08:49:14;10.40;99.90
17128;DHT22;8679;50.842;4.322;2023-04-24T08:51:44;10.50;99.90
17128;DHT22;8679;50.842;4.322;2023-04-24T08:54:11;10.50;99.90
17128;DHT22;8679;50.842;4.322;2023-04-24T08:56:37;10.70;99.90
17128;DHT22;8679;50.842;4.322;2023-04-24T08:59:06;10.80;99.90
17128;DHT22;8679;50.842;4.322;2023-04-24T09:01:32;10.80;99.90
17128;DHT22;8679;50.842;4.322;2023-04-24T09:04:03;10.90;99.90
17128;DHT22;8679;50.842;4.322;2023-04-24T09:06:30;11.10;99.90
17128;DHT22;8679;50.842;4.322;2023-04-24T09:09:00;11.10;99.90
17128;DHT22;8679;50.842;4.322;2023-04-24T09:11:26;11.20;99.90
17128;DHT22;8679;50.842;4.322;2023-04-24T09:13:53;11.30;99.90
17128;DHT22;8679;50.842;4.322;2023-04-24T09:16:20;11.30;99.90
17128;DHT22;8679;50.842;4.322;2023-04-24T09:18:46;11.50;99.90
17128;DHT22;8679;50.842;4.322;2023-04-24T09:21:11;11.50;96.20
17128;DHT22;8679;50.842;4.322;2023-04-24T09:23:37;11.30;94.00
17128;DHT22;8679;50.842;4.322;2023-04-24T09:26:04;11.30;99.90
17128;DHT22;8679;50.842;4.322;2023-04-24T09:28:36;11.10;99.90
17128;DHT22;8679;50.842;4.322;2023-04-24T09:31:18;11.00;99.90
17128;DHT22;8679;50.842;4.322;2023-04-24T09:33:54;11.00;99.90
17128;DHT22;8679;50.842;4.322;2023-04-24T09:36:37;10.90;99.90
17128;DHT22;8679;50.842;4.322;2023-04-24T09:39:05;10.90;99.90
17128;DHT22;8679;50.842;4.322;2023-04-24T09:41:32;11.10;98.20
17128;DHT22;8679;50.842;4.322;2023-04-24T09:44:20;11.40;9.60
17128;DHT22;8679;50.842;4.322;2023-04-24T09:46:55;11.50;1.00
17128;DHT22;8679;50.842;4.322;2023-04-24T09:49:29;11.40;1.00
17128;DHT22;8679;50.842;4.322;2023-04-24T09:52:09;11.20;1.00
17128;DHT22;8679;50.842;4.322;2023-04-24T09:54:35;11.20;1.00
17128;DHT22;8679;50.842;4.322;2023-04-24T09:57:06;11.30;1.00
17128;DHT22;8679;50.842;4.322;2023-04-24T09:59:32;11.20;1.00
17128;DHT22;8679;50.842;4.322;2023-04-24T10:01:59;11.20;1.00
17128;DHT22;8679;50.842;4.322;2023-04-24T10:04:27;11.20;1.00
17128;DHT22;8679;50.842;4.322;2023-04-24T10:06:54;11.10;1.00
17128;DHT22;8679;50.842;4.322;2023-04-24T10:09:22;11.10;1.00
17128;DHT22;8679;50.842;4.322;2023-04-24T10:11:49;11.20;1.00
17128;DHT22;8679;50.842;4.322;2023-04-24T10:14:17;11.20;1.00
17128;DHT22;8679;50.842;4.322;2023-04-24T10:16:44;11.20;1.00
17128;DHT22;8679;50.842;4.322;2023-04-24T10:19:12;11.10;1.00
17128;DHT22;8679;50.842;4.322;2023-04-24T10:21:39;11.10;1.00
17128;DHT22;8679;50.842;4.322;2023-04-24T10:24:08;11.00;1.00
17128;DHT22;8679;50.842;4.322;2023-04-24T10:26:34;11.00;1.00
17128;DHT22;8679;50.842;4.322;2023-04-24T10:29:01;11.10;1.00
17128;DHT22;8679;50.842;4.322;2023-04-24T10:31:30;11.10;1.00
17128;DHT22;8679;50.842;4.322;2023-04-24T10:33:56;11.10;1.00
17128;DHT22;8679;50.842;4.322;2023-04-24T10:36:24;11.20;1.00
17128;DHT22;8679;50.842;4.322;2023-04-24T10:38:53;11.30;1.00
17128;DHT22;8679;50.842;4.322;2023-04-24T10:41:20;11.30;1.00
17128;DHT22;8679;50.842;4.322;2023-04-24T10:46:33;11.70;1.00
17128;DHT22;8679;50.842;4.322;2023-04-24T10:48:58;12.00;1.00
17128;DHT22;8679;50.842;4.322;2023-04-24T10:51:45;12.00;1.00
17128;DHT22;8679;50.842;4.322;2023-04-24T10:54:33;12.00;1.00
17128;DHT22;8679;50.842;4.322;2023-04-24T11:00:19;11.80;1.00
17128;DHT22;8679;50.842;4.322;2023-04-24T11:02:47;11.60;1.00
17128;DHT22;8679;50.842;4.322;2023-04-24T11:05:19;11.80;1.00
17128;DHT22;8679;50.842;4.322;2023-04-24T11:08:10;11.90;1.00
17128;DHT22;8679;50.842;4.322;2023-04-24T11:10:47;12.10;1.00
17128;DHT22;8679;50.842;4.322;2023-04-24T11:13:21;12.20;1.00
17128;DHT22;8679;50.842;4.322;2023-04-24T11:18:52;12.30;1.00
17128;DHT22;8679;50.842;4.322;2023-04-24T11:21:25;12.40;1.00
17128;DHT22;8679;50.842;4.322;2023-04-24T11:23:56;12.60;1.00
17128;DHT22;8679;50.842;4.322;2023-04-24T11:26:22;12.70;1.00
17128;DHT22;8679;50.842;4.322;2023-04-24T11:29:06;12.50;1.00
17128;DHT22;8679;50.842;4.322;2023-04-24T11:34:12;12.20;1.00
17128;DHT22;8679;50.842;4.322;2023-04-24T11:36:40;12.10;1.00
17128;DHT22;8679;50.842;4.322;2023-04-24T11:39:07;12.10;1.00
17128;DHT22;8679;50.842;4.322;2023-04-24T11:41:34;12.10;1.00
17128;DHT22;8679;50.842;4.322;2023-04-24T11:44:00;12.20;1.00
17128;DHT22;8679;50.842;4.322;2023-04-24T11:46:30;12.10;1.00
17128;DHT22;8679;50.842;4.322;2023-04-24T11:48:57;12.00;1.00
17128;DHT22;8679;50.842;4.322;2023-04-24T11:51:24;12.10;1.00
17128;DHT22;8679;50.842;4.322;2023-04-24T11:53:51;12.20;1.00
17128;DHT22;8679;50.842;4.322;2023-04-24T11:56:22;12.30;1.00
17128;DHT22;8679;50.842;4.322;2023-04-24T11:58:48;12.30;1.00
17128;DHT22;8679;50.842;4.322;2023-04-24T12:01:13;12.50;1.00
17128;DHT22;8679;50.842;4.322;2023-04-24T12:03:39;12.50;1.00
17128;DHT22;8679;50.842;4.322;2023-04-24T12:06:09;12.50;1.00
17128;DHT22;8679;50.842;4.322;2023-04-24T12:08:39;12.50;1.00
17128;DHT22;8679;50.842;4.322;2023-04-24T12:11:06;12.60;1.00
17128;DHT22;8679;50.842;4.322;2023-04-24T12:13:35;12.60;1.00
17128;DHT22;8679;50.842;4.322;2023-04-24T12:16:03;12.40;1.00
17128;DHT22;8679;50.842;4.322;2023-04-24T12:18:29;12.50;1.00
17128;DHT22;8679;50.842;4.322;2023-04-24T12:20:55;12.70;1.00
17128;DHT22;8679;50.842;4.322;2023-04-24T12:23:35;12.90;1.00
17128;DHT22;8679;50.842;4.322;2023-04-24T12:26:04;13.30;1.00
17128;DHT22;8679;50.842;4.322;2023-04-24T12:28:37;13.30;1.00
17128;DHT22;8679;50.842;4.322;2023-04-24T12:31:03;13.50;1.00
17128;DHT22;8679;50.842;4.322;2023-04-24T12:33:33;13.60;1.00
17128;DHT22;8679;50.842;4.322;2023-04-24T12:35:58;13.20;1.00
17128;DHT22;8679;50.842;4.322;2023-04-24T12:38:26;13.40;1.00
17128;DHT22;8679;50.842;4.322;2023-04-24T12:41:06;13.90;1.00
17128;DHT22;8679;50.842;4.322;2023-04-24T12:43:32;14.30;1.00
17128;DHT22;8679;50.842;4.322;2023-04-24T12:45:58;14.70;1.00
17128;DHT22;8679;50.842;4.322;2023-04-24T12:48:25;14.50;1.00
17128;DHT22;8679;50.842;4.322;2023-04-24T12:50:51;14.70;1.00
17128;DHT22;8679;50.842;4.322;2023-04-24T12:53:17;14.70;1.00
17128;DHT22;8679;50.842;4.322;2023-04-24T12:55:43;14.70;1.00
17128;DHT22;8679;50.842;4.322;2023-04-24T12:58:10;14.40;1.00
17128;DHT22;8679;50.842;4.322;2023-04-24T13:00:36;13.70;1.00
17128;DHT22;8679;50.842;4.322;2023-04-24T13:03:02;13.80;1.00
17128;DHT22;8679;50.842;4.322;2023-04-24T13:05:28;13.70;1.00
17128;DHT22;8679;50.842;4.322;2023-04-24T13:07:53;14.00;1.00
17128;DHT22;8679;50.842;4.322;2023-04-24T13:10:19;14.40;1.00
17128;DHT22;8679;50.842;4.322;2023-04-24T13:12:45;14.60;1.00
17128;DHT22;8679;50.842;4.322;2023-04-24T13:15:11;14.70;1.00
17128;DHT22;8679;50.842;4.322;2023-04-24T13:17:37;15.20;1.00
17128;DHT22;8679;50.842;4.322;2023-04-24T13:20:03;15.80;1.00
17128;DHT22;8679;50.842;4.322;2023-04-24T13:22:29;15.90;1.00
17128;DHT22;8679;50.842;4.322;2023-04-24T13:24:55;15.50;1.00
17128;DHT22;8679;50.842;4.322;2023-04-24T13:27:21;15.10;1.00
17128;DHT22;8679;50.842;4.322;2023-04-24T13:29:47;14.40;1.00
17128;DHT22;8679;50.842;4.322;2023-04-24T13:32:13;14.20;1.00
17128;DHT22;8679;50.842;4.322;2023-04-24T13:34:38;14.00;1.00
17128;DHT22;8679;50.842;4.322;2023-04-24T13:37:04;14.40;1.00
17128;DHT22;8679;50.842;4.322;2023-04-24T13:39:30;14.60;1.00
17128;DHT22;8679;50.842;4.322;2023-04-24T13:41:57;14.60;1.00
17128;DHT22;8679;50.842;4.322;2023-04-24T13:44:23;14.70;1.00
17128;DHT22;8679;50.842;4.322;2023-04-24T13:46:50;14.40;1.00
17128;DHT22;8679;50.842;4.322;2023-04-24T13:49:17;14.20;1.00
17128;DHT22;8679;50.842;4.322;2023-04-24T13:51:43;14.30;1.00
17128;DHT22;8679;50.842;4.322;2023-04-24T13:54:09;14.80;1.00
17128;DHT22;8679;50.842;4.322;2023-04-24T13:56:35;15.20;1.00
17128;DHT22;8679;50.842;4.322;2023-04-24T13:59:01;15.60;1.00
17128;DHT22;8679;50.842;4.322;2023-04-24T14:01:27;15.40;1.00
17128;DHT22;8679;50.842;4.322;2023-04-24T14:03:54;15.00;1.00
17128;DHT22;8679;50.842;4.322;2023-04-24T14:06:20;15.20;1.00
17128;DHT22;8679;50.842;4.322;2023-04-24T14:08:47;15.40;1.00
17128;DHT22;8679;50.842;4.322;2023-04-24T14:11:12;14.90;1.00
17128;DHT22;8679;50.842;4.322;2023-04-24T14:13:39;14.30;1.00
17128;DHT22;8679;50.842;4.322;2023-04-24T14:16:06;13.90;1.00
17128;DHT22;8679;50.842;4.322;2023-04-24T14:18:31;13.90;1.00
17128;DHT22;8679;50.842;4.322;2023-04-24T14:20:57;13.90;1.00
17128;DHT22;8679;50.842;4.322;2023-04-24T14:23:23;13.80;1.00
17128;DHT22;8679;50.842;4.322;2023-04-24T14:25:49;14.00;1.00
17128;DHT22;8679;50.842;4.322;2023-04-24T14:28:18;14.00;1.00
17128;DHT22;8679;50.842;4.322;2023-04-24T14:30:44;13.90;1.00
17128;DHT22;8679;50.842;4.322;2023-04-24T14:33:10;13.60;1.00
17128;DHT22;8679;50.842;4.322;2023-04-24T14:35:36;13.40;1.00
17128;DHT22;8679;50.842;4.322;2023-04-24T14:38:01;13.50;1.00
17128;DHT22;8679;50.842;4.322;2023-04-24T14:40:28;13.20;1.00
17128;DHT22;8679;50.842;4.322;2023-04-24T14:42:53;13.00;1.00
17128;DHT22;8679;50.842;4.322;2023-04-24T14:45:19;12.80;1.00
17128;DHT22;8679;50.842;4.322;2023-04-24T14:47:45;12.70;1.00
17128;DHT22;8679;50.842;4.322;2023-04-24T14:50:11;12.70;1.00
17128;DHT22;8679;50.842;4.322;2023-04-24T14:52:38;12.70;1.00
17128;DHT22;8679;50.842;4.322;2023-04-24T14:55:04;12.80;1.00
17128;DHT22;8679;50.842;4.322;2023-04-24T14:57:30;13.00;1.00
17128;DHT22;8679;50.842;4.322;2023-04-24T14:59:55;13.20;1.00
17128;DHT22;8679;50.842;4.322;2023-04-24T15:02:21;13.10;1.00
17128;DHT22;8679;50.842;4.322;2023-04-24T15:04:46;13.10;1.00
17128;DHT22;8679;50.842;4.322;2023-04-24T15:07:12;13.10;1.00
17128;DHT22;8679;50.842;4.322;2023-04-24T15:09:38;13.10;1.00
17128;DHT22;8679;50.842;4.322;2023-04-24T15:12:03;13.20;1.00
17128;DHT22;8679;50.842;4.322;2023-04-24T15:14:29;13.10;1.00
17128;DHT22;8679;50.842;4.322;2023-04-24T15:16:55;13.10;1.00
17128;DHT22;8679;50.842;4.322;2023-04-24T15:19:21;13.00;1.00
17128;DHT22;8679;50.842;4.322;2023-04-24T15:21:46;13.00;1.00
17128;DHT22;8679;50.842;4.322;2023-04-24T15:24:12;13.00;1.00
17128;DHT22;8679;50.842;4.322;2023-04-24T15:26:38;12.90;1.00
17128;DHT22;8679;50.842;4.322;2023-04-24T15:29:03;13.00;1.00
17128;DHT22;8679;50.842;4.322;2023-04-24T15:31:29;12.90;1.00
17128;DHT22;8679;50.842;4.322;2023-04-24T15:33:55;12.90;1.00
17128;DHT22;8679;50.842;4.322;2023-04-24T15:36:20;12.90;1.00
17128;DHT22;8679;50.842;4.322;2023-04-24T15:38:46;13.10;1.00
17128;DHT22;8679;50.842;4.322;2023-04-24T15:41:12;13.20;1.00
17128;DHT22;8679;50.842;4.322;2023-04-24T15:43:38;13.30;1.00
17128;DHT22;8679;50.842;4.322;2023-04-24T15:46:06;13.20;1.00
17128;DHT22;8679;50.842;4.322;2023-04-24T15:48:32;12.90;1.00
17128;DHT22;8679;50.842;4.322;2023-04-24T15:50:58;12.90;1.00
17128;DHT22;8679;50.842;4.322;2023-04-24T15:53:24;12.80;1.00
17128;DHT22;8679;50.842;4.322;2023-04-24T15:55:51;12.80;1.00
17128;DHT22;8679;50.842;4.322;2023-04-24T15:58:18;12.80;1.00
17128;DHT22;8679;50.842;4.322;2023-04-24T16:00:44;12.70;1.00
17128;DHT22;8679;50.842;4.322;2023-04-24T16:03:10;12.60;1.00
17128;DHT22;8679;50.842;4.322;2023-04-24T16:05:36;12.60;1.00
17128;DHT22;8679;50.842;4.322;2023-04-24T16:08:02;12.60;1.00